Time;durP1;ratioP1;P1;durP2;ratioP2;P2;SDS_P1;SDS_P2;PMS_P1;PMS_P2;Temp;Humidity;BMP_temperature;BMP_pressure;BME280_temperature;BME280_humidity;BME280_pressure;Samples;Min_cycle;Max_cycle;Signal;HPM_P1;HPM_P2
2021/11/10 00:02:56;;;;;;;;;;;2.20;99.90;;;0.90;100.00;96418.16;10437431;28;1455;-74
2021/11/10 00:08:00;;;;;;;;;;;2.10;99.90;;;0.81;100.00;96414.84;10432785;28;1910;-75
2021/11/10 00:13:19;;;;;;;;;;;2.00;99.90;;;0.76;100.00;96416.44;10432974;28;1694;-75
2021/11/10 00:18:22;;;;;;;;;;;2.00;99.90;;;0.74;100.00;96416.66;10433513;28;1725;-74
2021/11/10 00:23:25;;;;;;;;;;;1.90;99.90;;;0.70;100.00;96414.59;10429452;28;1869;-74
2021/11/10 00:28:28;;;;;;;;;;;1.90;99.90;;;0.74;100.00;96416.66;10435310;28;1985;-74
2021/11/10 00:33:31;;;;;;;;;;;2.00;99.90;;;0.74;100.00;96413.19;10437316;28;1925;-73
2021/11/10 00:38:33;;;;;;;;;;;2.00;99.90;;;0.71;100.00;96397.72;10439984;28;1935;-72
2021/11/10 00:43:36;;;;;;;;;;;1.90;99.90;;;0.63;100.00;96400.50;10438634;28;1924;-73
2021/11/10 00:48:39;;;;;;;;;;;1.80;99.90;;;0.60;100.00;96392.97;10432036;28;2003;-72
2021/11/10 00:53:42;;;;;;;;;;;1.80;99.90;;;0.61;100.00;96397.25;10441268;28;1896;-72
2021/11/10 00:58:45;;;;;;;;;;;1.80;99.90;;;0.60;100.00;96395.63;10434733;28;2052;-73
2021/11/10 01:03:48;;;;;;;;;;;1.80;99.90;;;0.56;100.00;96386.44;10433077;28;1374;-71
2021/11/10 01:08:52;;;;;;;;;;;1.80;99.90;;;0.56;100.00;96384.59;10435507;28;1922;-72
2021/11/10 01:13:55;;;;;;;;;;;1.80;99.90;;;0.45;100.00;96391.28;10428868;28;1351;-73
2021/11/10 01:18:58;;;;;;;;;;;1.70;99.90;;;0.37;100.00;96378.19;10431463;28;1936;-73
2021/11/10 01:24:01;;;;;;;;;;;1.60;99.90;;;0.34;100.00;96377.78;10428605;28;1943;-74
2021/11/10 01:29:04;;;;;;;;;;;1.60;99.90;;;0.32;100.00;96377.13;10434914;28;2000;-73
2021/11/10 01:34:08;;;;;;;;;;;1.50;99.90;;;0.32;100.00;96372.69;10435050;28;1916;-74
2021/11/10 01:39:11;;;;;;;;;;;1.50;99.90;;;0.35;100.00;96377.59;10430521;28;1967;-72
2021/11/10 01:44:14;;;;;;;;;;;1.50;99.90;;;0.46;100.00;96369.09;10433620;28;2047;-70
2021/11/10 01:49:17;;;;;;;;;;;1.60;99.90;;;0.39;100.00;96373.56;10428382;28;1973;-73
2021/11/10 01:54:20;;;;;;;;;;;1.60;99.90;;;0.35;100.00;96369.66;10434140;28;1906;-72
2021/11/10 01:59:23;;;;;;;;;;;1.60;99.90;;;0.30;100.00;96380.00;10430992;28;2059;-75
2021/11/10 02:04:26;;;;;;;;;;;1.50;99.90;;;0.34;100.00;96375.97;10428893;28;1904;-74
2021/11/10 02:09:29;;;;;;;;;;;1.50;99.90;;;0.31;100.00;96360.47;10432416;28;2048;-74
2021/11/10 02:14:33;;;;;;;;;;;1.50;99.90;;;0.43;100.00;96358.91;10433731;28;1955;-73
2021/11/10 02:19:44;;;;;;;;;;;1.50;99.90;;;0.38;100.00;96363.13;10431031;28;1935;-74
2021/11/10 02:24:47;;;;;;;;;;;1.50;99.90;;;0.41;100.00;96366.22;10430043;28;1503;-74
2021/11/10 02:29:50;;;;;;;;;;;1.50;99.90;;;0.46;100.00;96357.72;10439329;28;2003;-73
2021/11/10 02:34:53;;;;;;;;;;;1.60;99.90;;;0.51;100.00;96364.06;10439488;28;1829;-73
2021/11/10 02:39:58;;;;;;;;;;;1.60;99.90;;;0.51;100.00;96360.59;10443657;28;1919;-74
2021/11/10 02:45:01;;;;;;;;;;;1.70;99.90;;;0.51;100.00;96360.59;10463793;28;1942;-73
2021/11/10 02:50:04;;;;;;;;;;;1.70;99.90;;;0.51;100.00;96357.94;10445393;28;1878;-74
2021/11/10 02:55:07;;;;;;;;;;;1.70;99.90;;;0.45;100.00;96356.91;10435531;28;2051;-74
2021/11/10 03:00:11;;;;;;;;;;;1.70;99.90;;;0.37;100.00;96348.28;10440088;28;1962;-74
2021/11/10 03:05:14;;;;;;;;;;;1.60;99.90;;;0.38;100.00;96349.91;10434607;28;1984;-74
2021/11/10 03:10:16;;;;;;;;;;;1.50;99.90;;;0.46;100.00;96342.66;10434184;28;2016;-75
2021/11/10 03:15:19;;;;;;;;;;;1.50;99.90;;;0.46;100.00;96337.38;10437950;28;2087;-71
2021/11/10 03:20:22;;;;;;;;;;;1.60;99.90;;;0.48;100.00;96335.34;10442373;28;1934;-73
2021/11/10 03:25:25;;;;;;;;;;;1.60;99.90;;;0.45;100.00;96335.75;10437727;28;1926;-74
2021/11/10 03:30:28;;;;;;;;;;;1.60;99.90;;;0.50;100.00;96333.28;10440570;28;2068;-75
2021/11/10 03:35:30;;;;;;;;;;;1.60;99.90;;;0.48;100.00;96332.69;10437400;28;2043;-72
2021/11/10 03:40:33;;;;;;;;;;;1.70;99.90;;;0.48;100.00;96330.03;10443439;28;1939;-72
2021/11/10 03:45:36;;;;;;;;;;;1.60;99.90;;;0.52;100.00;96312.78;10434391;28;2103;-73
2021/11/10 03:50:39;;;;;;;;;;;1.60;99.90;;;0.46;100.00;96318.84;10437448;28;1882;-73
2021/11/10 03:55:42;;;;;;;;;;;1.70;99.90;;;0.43;100.00;96321.88;10435708;28;3416;-73
2021/11/10 04:00:45;;;;;;;;;;;1.60;99.90;;;0.41;100.00;96323.91;10440214;28;2106;-71
2021/11/10 04:05:48;;;;;;;;;;;1.60;99.90;;;0.45;100.00;96319.06;10432451;28;2071;-72
2021/11/10 04:10:51;;;;;;;;;;;1.60;99.90;;;0.42;100.00;96320.25;10441309;28;1919;-71
2021/11/10 04:15:54;;;;;;;;;;;1.50;99.90;;;0.41;100.00;96321.25;10436074;28;1849;-72
2021/11/10 04:21:17;;;;;;;;;;;1.50;99.90;;;0.46;100.00;96326.78;10437387;28;1860;-74
2021/11/10 04:26:20;;;;;;;;;;;1.50;99.90;;;0.51;100.00;96324.38;10436509;28;1974;-74
2021/11/10 04:31:23;;;;;;;;;;;1.60;99.90;;;0.64;100.00;96325.44;10435670;28;2018;-73
2021/11/10 04:36:28;;;;;;;;;;;1.70;99.90;;;0.63;100.00;96318.50;10437068;28;1986;-72
2021/11/10 04:41:31;;;;;;;;;;;1.70;99.90;;;0.70;100.00;96327.28;10433237;28;2011;-74
2021/11/10 04:46:35;;;;;;;;;;;1.80;99.90;;;0.78;100.00;96337.69;10435784;28;1909;-73
2021/11/10 04:51:38;;;;;;;;;;;1.80;99.90;;;0.78;100.00;96325.28;10435538;28;1912;-72
2021/11/10 04:56:41;;;;;;;;;;;1.90;99.90;;;0.82;100.00;96330.97;10437897;28;1970;-71
2021/11/10 05:01:51;;;;;;;;;;;1.90;99.90;;;0.82;100.00;96331.78;10440001;28;1919;-73
2021/11/10 05:06:54;;;;;;;;;;;1.90;99.90;;;0.83;100.00;96332.63;10437986;28;1982;-74
2021/11/10 05:12:02;;;;;;;;;;;1.90;99.90;;;0.87;100.00;96320.63;10439662;28;1956;-73
2021/11/10 05:17:05;;;;;;;;;;;2.00;99.90;;;0.90;100.00;96324.72;10435325;28;1971;-73
2021/11/10 05:22:07;;;;;;;;;;;1.90;99.90;;;0.87;100.00;96315.31;10434778;28;1893;-73
2021/11/10 05:27:10;;;;;;;;;;;2.00;99.90;;;0.80;100.00;96317.13;10434039;28;2043;-72
2021/11/10 05:32:14;;;;;;;;;;;2.00;99.90;;;0.76;100.00;96321.19;10433715;28;1903;-72
2021/11/10 05:37:16;;;;;;;;;;;1.90;99.90;;;0.84;100.00;96323.69;10431370;28;1911;-73
2021/11/10 05:42:19;;;;;;;;;;;1.90;99.90;;;0.86;100.00;96326.13;10425983;28;2112;-73
2021/11/10 05:47:22;;;;;;;;;;;1.90;99.90;;;0.83;100.00;96340.56;10428201;28;2001;-73
2021/11/10 05:52:25;;;;;;;;;;;2.00;99.90;;;0.86;100.00;96326.94;10435655;28;2255;-73
2021/11/10 05:57:28;;;;;;;;;;;2.00;99.90;;;0.79;100.00;96323.44;10435632;28;1794;-74
2021/11/10 06:02:31;;;;;;;;;;;1.90;99.90;;;0.74;100.00;96323.22;10433310;28;1940;-72
2021/11/10 06:07:34;;;;;;;;;;;1.90;99.90;;;0.80;100.00;96317.94;10429500;28;1914;-72
2021/11/10 06:12:37;;;;;;;;;;;1.90;99.90;;;0.82;100.00;96330.97;10435081;28;1266;-73
2021/11/10 06:17:39;;;;;;;;;;;2.00;99.90;;;0.86;100.00;96329.56;10427629;28;1533;-73
2021/11/10 06:22:42;;;;;;;;;;;1.90;99.90;;;0.91;100.00;96337.75;10429187;28;1414;-72
2021/11/10 06:27:45;;;;;;;;;;;2.00;99.90;;;0.99;100.00;96349.97;10426655;28;1906;-73
2021/11/10 06:32:48;;;;;;;;;;;2.00;99.90;;;1.02;100.00;96353.06;10434217;28;2119;-72
2021/11/10 06:37:51;;;;;;;;;;;2.10;99.90;;;1.11;100.00;96350.22;10430465;28;2058;-72
2021/11/10 06:42:54;;;;;;;;;;;2.10;99.90;;;1.19;100.00;96364.06;10433423;28;1916;-73
2021/11/10 06:48:02;;;;;;;;;;;2.20;99.90;;;1.24;100.00;96369.59;10430668;28;2048;-73
2021/11/10 06:53:04;;;;;;;;;;;2.30;99.90;;;1.38;100.00;96367.78;10421169;28;2123;-73
2021/11/10 06:58:07;;;;;;;;;;;2.30;99.90;;;1.48;100.00;96367.41;10427595;28;2178;-73
2021/11/10 07:03:13;;;;;;;;;;;2.40;99.90;;;1.69;100.00;96369.88;10424113;28;2426;-73
2021/11/10 07:08:16;;;;;;;;;;;2.60;99.90;;;1.84;100.00;96356.41;10422696;28;2119;-73
2021/11/10 07:13:18;;;;;;;;;;;2.70;99.90;;;2.02;100.00;96359.25;10434073;28;1916;-74
2021/11/10 07:18:22;;;;;;;;;;;2.80;99.90;;;2.25;100.00;96364.13;10430931;28;2022;-76
2021/11/10 07:23:25;;;;;;;;;;;3.00;99.90;;;2.42;100.00;96369.81;10435721;28;1872;-72
2021/11/10 07:28:28;;;;;;;;;;;3.30;99.90;;;2.54;100.00;96373.44;10430196;28;1961;-77
2021/11/10 07:33:31;;;;;;;;;;;3.40;99.90;;;2.67;100.00;96362.81;10433896;28;2114;-78
2021/11/10 07:38:39;;;;;;;;;;;3.50;99.90;;;2.66;100.00;96371.78;10450370;28;1872;-76
2021/11/10 07:43:42;;;;;;;;;;;3.70;99.90;;;2.96;100.00;96371.25;10450452;28;2148;-76
2021/11/10 07:48:46;;;;;;;;;;;3.80;99.90;;;3.05;100.00;96370.00;10447816;28;2032;-77
2021/11/10 07:53:49;;;;;;;;;;;3.90;99.90;;;3.16;100.00;96366.66;10444668;28;2075;-77
2021/11/10 07:58:52;;;;;;;;;;;3.90;99.90;;;3.31;100.00;96360.25;10444764;28;1949;-79
2021/11/10 08:03:59;;;;;;;;;;;4.10;99.90;;;3.38;100.00;96361.06;10470400;28;2003;-77
2021/11/10 08:09:02;;;;;;;;;;;4.20;99.90;;;3.64;100.00;96360.06;10443298;28;1914;-75
2021/11/10 08:14:05;;;;;;;;;;;4.40;99.90;;;3.78;100.00;96354.41;10438668;28;2059;-77
2021/11/10 08:19:07;;;;;;;;;;;4.60;99.90;;;3.78;100.00;96346.44;10439579;28;2249;-78
2021/11/10 08:24:10;;;;;;;;;;;4.80;99.90;;;4.01;99.59;96347.72;10445586;28;2206;-76
2021/11/10 08:29:13;;;;;;;;;;;4.90;99.90;;;4.10;99.26;96343.72;10442358;28;2176;-75
2021/11/10 08:34:16;;;;;;;;;;;5.10;99.90;;;4.34;98.40;96344.72;10434789;28;1953;-79
2021/11/10 08:39:19;;;;;;;;;;;5.20;99.90;;;4.33;98.73;96349.25;10454135;28;1971;-77
2021/11/10 08:44:24;;;;;;;;;;;5.30;99.90;;;4.63;96.79;96356.50;10444786;28;2125;-77
2021/11/10 08:49:27;;;;;;;;;;;5.50;99.90;;;4.98;95.43;96356.72;10435332;28;2130;-77
2021/11/10 08:54:30;;;;;;;;;;;5.70;99.90;;;5.20;92.21;96343.72;10425394;28;2015;-76
2021/11/10 08:59:32;;;;;;;;;;;5.90;99.90;;;5.37;91.17;96339.38;10427824;28;2082;-78
2021/11/10 09:04:36;;;;;;;;;;;6.10;99.90;;;5.59;90.81;96341.53;10433265;28;2032;-79
2021/11/10 09:09:39;;;;;;;;;;;6.30;99.90;;;5.82;87.88;96332.78;10445678;28;1931;-77
2021/11/10 09:14:45;;;;;;;;;;;6.70;99.90;;;5.97;87.51;96338.50;10435157;28;1958;-79
2021/11/10 09:19:48;;;;;;;;;;;6.80;99.90;;;6.43;84.61;96335.03;10431167;28;2004;-78
2021/11/10 09:24:51;;;;;;;;;;;7.10;99.90;;;6.89;83.88;96349.38;10437783;28;1837;-78
2021/11/10 09:29:54;;;;;;;;;;;7.40;99.90;;;6.80;81.81;96345.41;10430181;28;1910;-78
2021/11/10 09:34:57;;;;;;;;;;;7.70;99.90;;;6.95;82.25;96359.13;10435127;28;1877;-78
2021/11/10 09:40:00;;;;;;;;;;;7.70;99.90;;;7.08;81.83;96357.22;10439654;28;1893;-79
2021/11/10 09:45:03;;;;;;;;;;;7.90;99.90;;;7.20;82.29;96363.34;10433413;28;1901;-79
2021/11/10 09:50:06;;;;;;;;;;;8.00;99.90;;;7.23;80.84;96360.19;10438458;28;2015;-79
2021/11/10 09:55:09;;;;;;;;;;;8.10;99.90;;;7.63;80.79;96359.31;10440658;28;1913;-78
2021/11/10 10:00:12;;;;;;;;;;;8.20;99.90;;;7.90;76.63;96351.50;10431469;28;2023;-76
2021/11/10 10:05:17;;;;;;;;;;;8.40;99.90;;;7.91;75.91;96343.22;10436300;28;1845;-77
2021/11/10 10:10:20;;;;;;;;;;;8.60;99.90;;;7.86;76.95;96337.78;10436270;28;1997;-75
2021/11/10 10:15:25;;;;;;;;;;;8.60;99.90;;;8.06;77.08;96322.06;10431790;28;1976;-77
2021/11/10 10:20:28;;;;;;;;;;;8.80;99.90;;;7.61;77.48;96314.09;10429688;28;1889;-75
2021/11/10 10:25:31;;;;;;;;;;;8.90;99.90;;;7.48;79.25;96288.44;10434205;28;1905;-77
2021/11/10 10:30:34;;;;;;;;;;;8.70;99.90;;;7.58;77.79;96288.63;10436850;28;1914;-75
2021/11/10 10:35:36;;;;;;;;;;;8.60;99.90;;;7.63;78.75;96295.91;10426487;28;1837;-75
2021/11/10 10:40:39;;;;;;;;;;;8.60;99.90;;;7.72;78.67;96299.84;10432720;28;1874;-76
2021/11/10 10:45:42;;;;;;;;;;;8.70;99.90;;;7.56;78.47;96289.91;10435749;28;1929;-77
2021/11/10 10:50:45;;;;;;;;;;;8.70;99.90;;;7.78;77.86;96272.09;10441985;28;2417;-76
2021/11/10 10:55:48;;;;;;;;;;;8.70;99.90;;;7.75;77.21;96253.03;10434304;28;1983;-75
2021/11/10 11:00:51;;;;;;;;;;;8.70;99.90;;;7.76;77.61;96257.31;10442270;28;1939;-75
2021/11/10 11:05:54;;;;;;;;;;;8.90;99.90;;;7.90;76.16;96253.28;10439865;28;1969;-75
2021/11/10 11:10:57;;;;;;;;;;;8.90;99.90;;;7.71;78.17;96268.78;10432860;28;1980;-74
2021/11/10 11:16:03;;;;;;;;;;;8.80;99.90;;;7.95;76.54;96266.75;10429329;28;2120;-74
2021/11/10 11:21:06;;;;;;;;;;;8.90;99.90;;;8.23;74.99;96268.50;10440687;28;2008;-74
2021/11/10 11:26:09;;;;;;;;;;;9.10;99.90;;;8.15;75.02;96260.06;10439415;28;2049;-75
2021/11/10 11:31:12;;;;;;;;;;;9.10;99.90;;;8.05;76.90;96245.47;10440147;28;2068;-74
2021/11/10 11:36:14;;;;;;;;;;;9.10;99.90;;;8.00;76.21;96253.41;10428498;28;2031;-74
2021/11/10 11:41:18;;;;;;;;;;;;;;;8.07;77.97;96245.22;10429586;28;2026;-74
2021/11/10 11:46:22;;;;;;;;;;;;;;;8.20;77.20;96242.19;10435191;28;2067;-76
2021/11/10 11:51:25;;;;;;;;;;;8.90;99.90;;;8.18;78.06;96238.94;10434351;28;2009;-74
2021/11/10 11:56:27;;;;;;;;;;;8.80;99.90;;;8.43;76.78;96227.81;10435413;28;2018;-73
2021/11/10 12:01:31;;;;;;;;;;;9.30;99.90;;;8.31;76.82;96230.56;10427004;28;2226;-76
2021/11/10 12:06:34;;;;;;;;;;;9.40;99.90;;;8.53;76.43;96230.63;10425139;28;2096;-76
2021/11/10 12:11:37;;;;;;;;;;;9.40;99.90;;;8.63;76.27;96213.84;10437656;28;2150;-74
2021/11/10 12:16:40;;;;;;;;;;;9.50;99.90;;;8.50;77.03;96228.41;10425402;28;2068;-75
2021/11/10 12:21:43;;;;;;;;;;;9.50;99.90;;;8.46;77.50;96221.97;10434740;28;2009;-75
2021/11/10 12:26:46;;;;;;;;;;;9.50;99.90;;;8.57;76.93;96226.34;10449564;28;2039;-77
2021/11/10 12:31:49;;;;;;;;;;;9.60;99.90;;;8.62;76.80;96218.38;10441092;28;2085;-76
2021/11/10 12:36:52;;;;;;;;;;;9.60;99.90;;;8.80;75.99;96224.50;10433295;28;2004;-75
2021/11/10 12:41:55;;;;;;;;;;;9.70;99.90;;;8.66;76.36;96218.72;10434461;28;2063;-75
2021/11/10 12:46:58;;;;;;;;;;;9.70;99.90;;;8.93;75.47;96219.53;10426390;28;2077;-76
2021/11/10 12:52:01;;;;;;;;;;;9.80;99.90;;;8.96;76.01;96217.41;10429051;28;2014;-76
2021/11/10 12:57:04;;;;;;;;;;;9.90;99.90;;;8.79;75.65;96217.53;10431542;28;2006;-75
2021/11/10 13:02:07;;;;;;;;;;;9.90;99.90;;;8.73;74.78;96216.66;10418421;28;2116;-76
2021/11/10 13:07:16;;;;;;;;;;;9.80;99.90;;;8.98;74.03;96220.66;10425545;28;2511;-74
2021/11/10 13:12:19;;;;;;;;;;;9.90;99.90;;;8.51;75.60;96222.00;10430031;28;1988;-76
2021/11/10 13:17:25;;;;;;;;;;;9.80;99.90;;;8.84;74.30;96213.03;10431083;28;1928;-74
2021/11/10 13:22:28;;;;;;;;;;;9.80;99.90;;;8.46;76.10;96205.03;10435199;28;1814;-74
2021/11/10 13:27:31;;;;;;;;;;;9.70;99.90;;;8.59;76.73;96202.81;10430092;28;2215;-75
2021/11/10 13:32:34;;;;;;;;;;;9.60;99.90;;;8.23;80.04;96206.09;10418732;28;1985;-74
2021/11/10 13:37:37;;;;;;;;;;;9.60;99.90;;;8.05;82.91;96207.97;10427297;28;1963;-76
2021/11/10 13:42:41;;;;;;;;;;;9.30;99.90;;;7.89;83.92;96203.50;10422936;28;1901;-75
2021/11/10 13:47:44;;;;;;;;;;;9.10;99.90;;;7.79;84.47;96208.69;10420732;28;1982;-76
2021/11/10 13:52:47;;;;;;;;;;;8.90;99.90;;;7.76;85.62;96191.25;10427116;28;2046;-75
2021/11/10 13:57:50;;;;;;;;;;;8.90;99.90;;;7.82;85.61;96192.94;10421314;28;1976;-77
2021/11/10 14:02:53;;;;;;;;;;;8.90;99.90;;;7.60;88.14;96202.78;10423786;28;1917;-77
2021/11/10 14:07:56;;;;;;;;;;;8.90;99.90;;;7.59;87.60;96188.59;10425704;28;1988;-75
2021/11/10 14:12:59;;;;;;;;;;;8.80;99.90;;;7.29;88.74;96204.13;10429387;28;1980;-77
2021/11/10 14:18:02;;;;;;;;;;;8.60;99.90;;;7.33;88.95;96202.63;10420224;28;1940;-77
2021/11/10 14:23:05;;;;;;;;;;;8.50;99.90;;;7.21;90.11;96208.03;10430824;28;1948;-78
2021/11/10 14:28:08;;;;;;;;;;;8.40;99.90;;;7.24;91.05;96222.75;10433044;28;2227;-77
2021/11/10 14:33:11;;;;;;;;;;;8.30;99.90;;;7.10;91.64;96216.09;10428661;28;1946;-77
2021/11/10 14:38:14;;;;;;;;;;;8.30;99.90;;;7.18;91.16;96207.69;10428047;28;1942;-77
2021/11/10 14:43:16;;;;;;;;;;;8.30;99.90;;;7.01;93.17;96207.69;10438239;28;2015;-75
2021/11/10 14:48:19;;;;;;;;;;;8.20;99.90;;;6.90;94.14;96217.38;10434499;28;1977;-75
2021/11/10 14:53:22;;;;;;;;;;;8.10;99.90;;;6.97;94.09;96244.75;10440443;28;1963;-76
2021/11/10 14:58:30;;;;;;;;;;;8.10;99.90;;;7.01;93.28;96235.22;10440129;28;2175;-78
2021/11/10 15:03:34;;;;;;;;;;;8.10;99.90;;;6.95;93.83;96236.19;10435445;28;1980;-76
2021/11/10 15:08:37;;;;;;;;;;;8.10;99.90;;;6.89;93.67;96234.44;10435648;28;1928;-77
2021/11/10 15:13:40;;;;;;;;;;;8.10;99.90;;;6.87;94.01;96228.53;10440321;28;1980;-77
2021/11/10 15:18:43;;;;;;;;;;;8.00;99.90;;;6.78;94.81;96224.63;10445944;28;2057;-77
2021/11/10 15:23:46;;;;;;;;;;;8.00;99.90;;;6.72;95.66;96215.69;10444847;28;1870;-77
2021/11/10 15:28:49;;;;;;;;;;;7.90;99.90;;;6.72;96.07;96214.88;10433376;28;2037;-75
2021/11/10 15:33:53;;;;;;;;;;;7.90;99.90;;;6.62;95.16;96194.13;10431829;28;2028;-74
2021/11/10 15:38:56;;;;;;;;;;;7.80;99.90;;;6.50;94.94;96204.06;10431876;28;1929;-77
2021/11/10 15:43:59;;;;;;;;;;;7.70;99.90;;;6.49;95.92;96207.78;10434514;28;2313;-77
2021/11/10 15:49:02;;;;;;;;;;;7.60;99.90;;;6.46;95.51;96227.72;10432237;28;2100;-77
2021/11/10 15:54:05;;;;;;;;;;;7.60;99.90;;;6.52;96.12;96231.31;10443551;28;1890;-77
2021/11/10 15:59:08;;;;;;;;;;;7.60;99.90;;;6.48;94.79;96246.19;10437079;28;1940;-76
2021/11/10 16:04:11;;;;;;;;;;;6.90;99.90;;;6.38;94.55;96251.34;10435820;28;2155;-78
2021/11/10 16:09:14;;;;;;;;;;;7.60;99.90;;;6.24;95.62;96248.13;10427384;28;1967;-78
2021/11/10 16:14:17;;;;;;;;;;;7.50;99.90;;;6.15;96.27;96242.28;10430258;28;1917;-77
2021/11/10 16:19:20;;;;;;;;;;;7.40;99.90;;;6.09;97.18;96245.09;10435331;28;2074;-77
2021/11/10 16:24:23;;;;;;;;;;;7.20;99.90;;;6.08;97.70;96233.59;10434761;28;2293;-76
2021/11/10 16:29:27;;;;;;;;;;;7.20;99.90;;;6.07;98.47;96239.19;10430769;28;2068;-76
2021/11/10 16:34:32;;;;;;;;;;;7.20;99.90;;;6.01;99.25;96238.25;10437120;28;2157;-77
2021/11/10 16:39:34;;;;;;;;;;;7.20;99.90;;;5.97;100.00;96235.22;10438096;28;1952;-76
2021/11/10 16:44:38;;;;;;;;;;;7.10;99.90;;;5.94;100.00;96225.03;10436461;28;1933;-77
2021/11/10 16:49:41;;;;;;;;;;;7.10;99.90;;;5.91;100.00;96225.47;10430020;28;1955;-75
2021/11/10 16:54:44;;;;;;;;;;;7.10;99.90;;;5.95;100.00;96226.66;10440136;28;2111;-77
2021/11/10 16:59:47;;;;;;;;;;;7.10;99.90;;;5.88;100.00;96228.59;10428329;28;1986;-77
2021/11/10 17:04:53;;;;;;;;;;;7.00;99.90;;;5.84;100.00;96237.28;10431446;28;1867;-77
2021/11/10 17:09:55;;;;;;;;;;;7.00;99.90;;;5.90;100.00;96239.84;10429010;28;1979;-78
2021/11/10 17:15:03;;;;;;;;;;;7.00;99.90;;;5.86;100.00;96232.56;10432595;28;1941;-78
2021/11/10 17:20:06;;;;;;;;;;;7.00;99.90;;;5.83;100.00;96233.00;10426208;28;1935;-76
2021/11/10 17:25:09;;;;;;;;;;;7.00;99.90;;;5.81;100.00;96241.25;10427986;28;2011;-77
2021/11/10 17:30:12;;;;;;;;;;;7.00;99.90;;;5.75;100.00;96238.69;10436567;28;1975;-77
2021/11/10 17:35:15;;;;;;;;;;;6.90;99.90;;;5.69;100.00;96229.75;10423881;28;1913;-77
2021/11/10 17:40:18;;;;;;;;;;;6.90;99.90;;;5.62;100.00;96226.41;10426374;28;1973;-77
2021/11/10 17:45:21;;;;;;;;;;;6.80;99.90;;;5.54;100.00;96224.09;10422216;28;2011;-77
2021/11/10 17:50:24;;;;;;;;;;;6.70;99.90;;;5.50;100.00;96218.38;10427890;28;2148;-77
2021/11/10 17:55:27;;;;;;;;;;;6.70;99.90;;;5.43;100.00;96212.34;10430209;28;2203;-77
2021/11/10 18:00:30;;;;;;;;;;;6.60;99.90;;;5.47;100.00;96207.34;10426796;28;1925;-76
2021/11/10 18:05:33;;;;;;;;;;;6.60;99.90;;;5.47;100.00;96218.84;10421943;28;1974;-77
2021/11/10 18:10:37;;;;;;;;;;;6.60;99.90;;;5.39;100.00;96205.84;10428183;28;2365;-77
2021/11/10 18:15:40;;;;;;;;;;;6.60;99.90;;;5.43;100.00;96217.69;10434233;28;2168;-76
2021/11/10 18:20:44;;;;;;;;;;;6.60;99.90;;;5.51;100.00;96219.19;10424744;28;1985;-75
2021/11/10 18:25:52;;;;;;;;;;;6.60;99.90;;;5.51;100.00;96230.66;10431381;28;1381;-76
2021/11/10 18:31:09;;;;;;;;;;;6.60;99.90;;;5.58;100.00;96227.91;10433381;28;2019;-76
2021/11/10 18:36:32;;;;;;;;;;;6.60;99.90;;;5.55;100.00;96225.69;10433595;28;1313;-74
2021/11/10 18:41:35;;;;;;;;;;;6.70;99.90;;;5.49;100.00;96230.09;10432239;28;1311;-76
2021/11/10 18:46:38;;;;;;;;;;;6.60;99.90;;;5.40;100.00;96240.25;10430855;28;1358;-76
2021/11/10 18:51:41;;;;;;;;;;;6.60;99.90;;;5.34;100.00;96238.53;10432065;28;1910;-75
2021/11/10 18:56:45;;;;;;;;;;;6.50;99.90;;;5.32;100.00;96227.28;10423037;28;1234;-77
2021/11/10 19:01:50;;;;;;;;;;;6.50;99.90;;;5.24;100.00;96219.63;10432348;28;2051;-76
2021/11/10 19:07:00;;;;;;;;;;;6.50;99.90;;;5.18;100.00;96222.38;10425640;28;2173;-77
2021/11/10 19:12:27;;;;;;;;;;;6.40;99.90;;;5.10;100.00;96215.53;10435295;28;2096;-77
2021/11/10 19:17:48;;;;;;;;;;;6.40;99.90;;;5.04;100.00;96208.47;10434768;28;1489;-75
2021/11/10 19:22:51;;;;;;;;;;;6.30;99.90;;;4.88;100.00;96218.69;10435663;28;1468;-77
2021/11/10 19:27:54;;;;;;;;;;;6.20;99.90;;;4.82;100.00;96214.28;10438734;28;1907;-77
2021/11/10 19:32:57;;;;;;;;;;;6.10;99.90;;;4.75;100.00;96200.25;10436271;28;1910;-77
2021/11/10 19:38:00;;;;;;;;;;;6.00;99.90;;;4.73;100.00;96202.34;10436832;28;1409;-77
2021/11/10 19:43:03;;;;;;;;;;;5.90;99.90;;;4.63;100.00;96195.91;10442800;28;1149;-75
2021/11/10 19:48:05;;;;;;;;;;;5.90;99.90;;;4.57;100.00;96189.63;10438405;28;1445;-76
2021/11/10 19:53:09;;;;;;;;;;;5.90;99.90;;;4.46;100.00;96195.75;10438545;28;1906;-75
2021/11/10 19:58:14;;;;;;;;;;;5.80;99.90;;;4.48;100.00;96188.34;10436496;28;1485;-75
2021/11/10 20:03:17;;;;;;;;;;;5.80;99.90;;;4.46;100.00;96190.41;10434027;28;1256;-76
2021/11/10 20:08:23;;;;;;;;;;;5.70;99.90;;;4.31;100.00;96204.09;10435958;28;1423;-76
2021/11/10 20:13:26;;;;;;;;;;;5.60;99.90;;;4.27;100.00;96203.75;10437161;28;1973;-75
2021/11/10 20:18:29;;;;;;;;;;;5.60;99.90;;;4.23;100.00;96196.44;10435277;28;1330;-75
2021/11/10 20:23:32;;;;;;;;;;;5.50;99.90;;;4.16;100.00;96201.81;10440931;28;1292;-77
2021/11/10 20:28:35;;;;;;;;;;;5.50;99.90;;;4.20;100.00;96189.72;10436609;28;1778;-75
2021/11/10 20:33:38;;;;;;;;;;;5.40;99.90;;;4.18;100.00;96202.41;10434931;28;2007;-76
2021/11/10 20:38:41;;;;;;;;;;;5.40;99.90;;;4.10;100.00;96207.22;10446645;28;1422;-76
2021/11/10 20:43:43;;;;;;;;;;;5.40;99.90;;;4.00;100.00;96210.38;10440475;28;1328;-77
2021/11/10 20:48:46;;;;;;;;;;;5.30;99.90;;;3.90;100.00;96218.09;10433341;28;1473;-75
2021/11/10 20:53:49;;;;;;;;;;;5.20;99.90;;;3.89;100.00;96203.16;10437487;28;1890;-76
2021/11/10 20:58:52;;;;;;;;;;;5.10;99.90;;;3.92;100.00;96210.69;10437165;28;1796;-76
2021/11/10 21:03:55;;;;;;;;;;;5.10;99.90;;;3.83;100.00;96198.72;10439839;28;1453;-76
2021/11/10 21:08:58;;;;;;;;;;;5.10;99.90;;;3.69;100.00;96201.53;10438199;28;1603;-76
2021/11/10 21:14:01;;;;;;;;;;;5.00;99.90;;;3.68;100.00;96194.56;10441240;28;1906;-76
2021/11/10 21:19:04;;;;;;;;;;;5.00;99.90;;;3.66;100.00;96188.66;10441262;28;1972;-79
2021/11/10 21:24:06;;;;;;;;;;;5.00;99.90;;;3.65;100.00;96189.69;10431649;28;1939;-79
2021/11/10 21:29:09;;;;;;;;;;;5.00;99.90;;;3.61;100.00;96182.38;10435544;28;2010;-77
2021/11/10 21:34:13;;;;;;;;;;;4.90;99.90;;;3.65;100.00;96176.41;10428899;28;1918;-79
2021/11/10 21:39:17;;;;;;;;;;;4.80;99.90;;;3.62;100.00;96171.50;10430668;28;1881;-76
2021/11/10 21:44:20;;;;;;;;;;;4.90;99.90;;;3.56;100.00;96166.25;10431578;28;2073;-78
2021/11/10 21:49:23;;;;;;;;;;;4.90;99.90;;;3.50;100.00;96160.00;10428740;28;1850;-76
2021/11/10 21:54:26;;;;;;;;;;;4.80;99.90;;;3.40;100.00;96154.34;10429287;28;1917;-77
2021/11/10 21:59:29;;;;;;;;;;;4.80;99.90;;;3.27;100.00;96144.66;10429745;28;1830;-79
2021/11/10 22:04:32;;;;;;;;;;;4.60;99.90;;;3.14;100.00;96142.94;10430344;28;1858;-77
2021/11/10 22:09:34;;;;;;;;;;;4.50;99.90;;;3.30;100.00;96135.44;10427265;28;1961;-77
2021/11/10 22:14:38;;;;;;;;;;;4.50;99.90;;;3.28;100.00;96137.50;10430469;28;2107;-77
2021/11/10 22:19:41;;;;;;;;;;;4.50;99.90;;;3.20;100.00;96158.00;10427598;28;1834;-77
2021/11/10 22:24:44;;;;;;;;;;;4.50;99.90;;;3.20;100.00;96158.00;10436167;28;1936;-76
2021/11/10 22:29:47;;;;;;;;;;;4.50;99.90;;;3.09;100.00;96157.91;10430429;28;1921;-77
2021/11/10 22:34:50;;;;;;;;;;;4.40;99.90;;;2.95;100.00;96162.50;10431972;28;1914;-77
2021/11/10 22:39:53;;;;;;;;;;;4.30;99.90;;;2.87;100.00;96157.47;10438891;28;1822;-77
2021/11/10 22:44:56;;;;;;;;;;;4.20;99.90;;;2.74;100.00;96170.84;10443343;28;1937;-78
2021/11/10 22:49:59;;;;;;;;;;;4.10;99.90;;;2.64;100.00;96172.09;10441718;28;2011;-76
2021/11/10 22:55:02;;;;;;;;;;;4.00;99.90;;;2.53;100.00;96175.44;10445737;28;1965;-78
2021/11/10 23:00:05;;;;;;;;;;;3.90;99.90;;;2.53;100.00;96180.75;10443448;28;1874;-76
2021/11/10 23:05:08;;;;;;;;;;;3.80;99.90;;;2.53;100.00;96180.75;10442429;28;1841;-76
2021/11/10 23:10:11;;;;;;;;;;;3.80;99.90;;;2.40;100.00;96176.31;10442820;28;1937;-76
2021/11/10 23:15:14;;;;;;;;;;;3.80;99.90;;;2.35;100.00;96172.66;10438790;28;1983;-78
2021/11/10 23:20:17;;;;;;;;;;;3.60;99.90;;;2.29;100.00;96169.06;10444155;28;1877;-77
2021/11/10 23:25:20;;;;;;;;;;;3.50;99.90;;;2.32;100.00;96163.31;10437719;28;1841;-76
2021/11/10 23:30:22;;;;;;;;;;;3.60;99.90;;;2.25;100.00;96145.81;10438691;28;1829;-75
2021/11/10 23:35:25;;;;;;;;;;;3.50;99.90;;;2.22;100.00;96146.22;10438126;28;1969;-78
2021/11/10 23:40:28;;;;;;;;;;;3.50;99.90;;;2.10;100.00;96149.56;10442122;28;1865;-76